KWRB/WRB METAR and TAF weather

Enter ICAO airport designator
Station Type Date Time Source
KWRB METAR 2022/12/08 12:31 UTC NOAA

KWRB 081231Z AUTO 00000KT 1 1/8SM BR CLR 14/14 A3022 RMK AO2 VIS 1 1/8V4 SLP235 $


Station Type Date Time Source
KWRB Decoded METAR 2022/12/08 12:31 UTC NOAA

Warner Robins Air Force Base, GA, United States (KWRB) 32-38N 083-36W
Dec 08, 2022 - 07:31 AM EST / 2022.12.08 1231 UTC
Wind: Calm:0
Visibility: 1 1/8 mile(s):0
Sky conditions: clear
Weather: mist
Temperature: 57 F (14 C)
Dew Point: 57 F (14 C)
Relative Humidity: 100%
Pressure (altimeter): 30.22 in. Hg (1023 hPa)
ob: KWRB 081231Z AUTO 00000KT 1 1/8SM BR CLR 14/14 A3022 RMK AO2 VIS 1 1/8V4 SLP235
cycle: 12

Station Type Date Time Source
KWRB TAF 2022/12/08 09:09 UTC NOAA

TAF KWRB 080900Z 0809/0915 VRB03KT 4800 BR FEW020 SCT200 QNH3020INS
TEMPO 0810/0815 2000 BR BKN008
BECMG 0815/0816 VRB06KT 9999 NSW SCT035 SCT250 QNH3017INS
BECMG 0904/0906 VRB03KT 4800 BR FEW020 SCT200 QNH3013INS TX24/0820Z TN14/0811Z

Example: see airport list